Burrton, Kansas
Current Conditions -  °F | °C
As of 6:52 PM on Saturday 25 Oct 2014 (Local Time) from KHUT Reporting Station
Clear Clear  
Wind Chill: 74°   Ceiling: Unl
Heat Index: 74°   Visibility: 10mi
Dew Point: 58°   Wind: 8mph
Humidity: 57%   Direction: 150°SSE
Pressure: 29.97"   Gusts: NA
Location:  38.02°N, 97.67°W
Report Text: KHUT 252352Z 15007KT 10SM CLR 23/14 A2997 RMK AO2 SLP134 T02330144 10328 20233 57012
Loading
Personal Weather Stations






























Interactive Weather Map
Tropical Storm Tracking
New forecast layout! Learn more

10-Day Weather Forecast

Advertisements
Track Severe Weather on mobile